Birsk, Russia
Current Conditions -  °F | °C
As of 2:30 AM on Thursday 23 Oct 2014 (Local Time) from UWUU Reporting Station
Light Snow Light Snow  
Wind Chill: 17°   Ceiling: 2200
Heat Index: 28°   Visibility: 6mi
Dew Point: 23°   Wind: 16mph
Humidity: 80%   Direction: 270°W
Pressure: 29.59"   Gusts: 22mph
Location:  55.42°N, 55.54°E
Report Text: UWUU 222130Z 27007G10MPS 9999 -SN OVC022 M02/M05 Q1002 320///60NOSIG RMK QFE739/0986 MOD ICE INC
Loading
Personal Weather Stations






























Interactive Weather Map New forecast layout! Learn more

10-Day Weather Forecast

Advertisements
Track Severe Weather on mobile